MSC Nuria — 3ESE2 — position and weather

sailwx.info

Track history (hours):
 
Tides and Currents Weather Stations Pressure Air Temp Water Temp Dewpoint Dewpoint Depression Visibility Wind Speed Wind Dir Waves Ship Positions

MSC Nuria

Last reported at 2015-Jan-28 01:29 UTC. Time now 2015-Jan-29 14:25 UTC.
Position N 25°43' W 079°41'.

Length 275 m; draft 10 m.

Type: Ship (hazmat cat A). MMSI: 370272977.

Date/timePositionNaut miles runAvg speedWind from/ knotsBaromVisibWave heightAir tempDewpointWater temp
2015-Jan-28 01:29N 25°43' W 079°41'1515.8
2015-Jan-28 00:33N 25°55' W 079°49'1616.0
2015-Jan-27 23:33N 26°05' W 080°04'3 2.8
2015-Jan-27 22:29N 26°04' W 080°07'0 0.0
2015-Jan-27 21:23N 26°04' W 080°07'0 0.0
2015-Jan-27 20:32N 26°04' W 080°07'0 0.0
2015-Jan-27 19:25N 26°04' W 080°07'0 0.0
2015-Jan-27 18:31N 26°04' W 080°07'0 0.0
2015-Jan-27 17:27N 26°04' W 080°07'0 0.0
2015-Jan-27 16:33N 26°04' W 080°07'0 0.0
2015-Jan-27 15:26N 26°04' W 080°07'0 0.0
2015-Jan-27 14:32N 26°04' W 080°07'0 0.0
2015-Jan-27 13:32N 26°04' W 080°07'0 0.0
2015-Jan-27 12:22N 26°04' W 080°07'0 0.0
2015-Jan-27 11:28N 26°04' W 080°07'1 1.6
2015-Jan-27 10:33N 26°06' W 080°07'6 6.3
2015-Jan-27 09:33N 26°09' W 080°01'1413.7
2015-Jan-27 08:33N 26°20' W 079°52'1717.4
2015-Jan-27 07:34N 26°36' W 079°46'1818.3
2015-Jan-27 06:34N 26°55' W 079°45'30517.5
2015-Jan-26 13:06N 31°56' W 080°40'5 9.8
2015-Jan-26 12:34N 31°59' W 080°45'1212.4
2015-Jan-26 11:33N 32°04' W 080°58'7 7.2
2015-Jan-26 10:33N 32°06' W 081°07'2 1.9
2015-Jan-26 09:31N 32°08' W 081°08'0 0.0
2015-Jan-26 08:31N 32°08' W 081°08'0 0.0
2015-Jan-26 07:34N 32°08' W 081°08'0 0.0
2015-Jan-26 06:33N 32°08' W 081°08'0 0.0
2015-Jan-26 05:33N 32°08' W 081°08'0 0.0
2015-Jan-26 04:33N 32°08' W 081°08'0 0.0
2015-Jan-26 03:32N 32°08' W 081°08'0 0.0
2015-Jan-26 02:32N 32°08' W 081°08'0 0.0
2015-Jan-26 01:31N 32°08' W 081°08'0 0.0
2015-Jan-26 00:33N 32°08' W 081°08'0 0.0
2015-Jan-25 23:33N 32°08' W 081°08'0 0.0
2015-Jan-25 22:33N 32°08' W 081°08'0 0.0
2015-Jan-25 21:33N 32°08' W 081°08'0 0.0
2015-Jan-25 20:32N 32°08' W 081°08'0 0.0
2015-Jan-25 19:31N 32°08' W 081°08'0 0.0
2015-Jan-25 18:31N 32°08' W 081°08'0 0.0
2015-Jan-25 17:31N 32°08' W 081°08'0 0.0
2015-Jan-25 16:33N 32°08' W 081°08'1 1.4
2015-Jan-25 15:33N 32°06' W 081°07'6 6.1
2015-Jan-25 14:33N 32°06' W 081°00'1312.8
2015-Jan-25 13:34N 31°60' W 080°47'10 9.7
2015-Jan-25 12:32N 31°55' W 080°37'6 6.2
2015-Jan-25 11:33N 31°52' W 080°30'  
Track history (hours):
 
Tides and Currents Weather Stations Pressure Air Temp Water Temp Dewpoint Dewpoint Depression Visibility Wind Speed Wind Dir Waves Ship Positions

MSC Nuria

Last reported at 2015-Jan-28 01:29 UTC. Time now 2015-Jan-29 14:25 UTC.
Position N 25°43' W 079°41'.

Length 275 m; draft 10 m.

Type: Ship (hazmat cat A). MMSI: 370272977.

Date/timePositionNaut miles runAvg speedWind from/ knotsBaromVisibWave heightAir tempDewpointWater temp
2015-Jan-28 01:29N 25°43' W 079°41'1515.8
2015-Jan-28 00:33N 25°55' W 079°49'1616.0
2015-Jan-27 23:33N 26°05' W 080°04'3 2.8
2015-Jan-27 22:29N 26°04' W 080°07'0 0.0
2015-Jan-27 21:23N 26°04' W 080°07'0 0.0
2015-Jan-27 20:32N 26°04' W 080°07'0 0.0
2015-Jan-27 19:25N 26°04' W 080°07'0 0.0
2015-Jan-27 18:31N 26°04' W 080°07'0 0.0
2015-Jan-27 17:27N 26°04' W 080°07'0 0.0
2015-Jan-27 16:33N 26°04' W 080°07'0 0.0
2015-Jan-27 15:26N 26°04' W 080°07'0 0.0
2015-Jan-27 14:32N 26°04' W 080°07'0 0.0
2015-Jan-27 13:32N 26°04' W 080°07'0 0.0
2015-Jan-27 12:22N 26°04' W 080°07'0 0.0
2015-Jan-27 11:28N 26°04' W 080°07'1 1.6
2015-Jan-27 10:33N 26°06' W 080°07'6 6.3
2015-Jan-27 09:33N 26°09' W 080°01'1413.7
2015-Jan-27 08:33N 26°20' W 079°52'1717.4
2015-Jan-27 07:34N 26°36' W 079°46'1818.3
2015-Jan-27 06:34N 26°55' W 079°45'30517.5
2015-Jan-26 13:06N 31°56' W 080°40'5 9.8
2015-Jan-26 12:34N 31°59' W 080°45'1212.4
2015-Jan-26 11:33N 32°04' W 080°58'7 7.2
2015-Jan-26 10:33N 32°06' W 081°07'2 1.9
2015-Jan-26 09:31N 32°08' W 081°08'0 0.0
2015-Jan-26 08:31N 32°08' W 081°08'0 0.0
2015-Jan-26 07:34N 32°08' W 081°08'0 0.0
2015-Jan-26 06:33N 32°08' W 081°08'0 0.0
2015-Jan-26 05:33N 32°08' W 081°08'0 0.0
2015-Jan-26 04:33N 32°08' W 081°08'0 0.0
2015-Jan-26 03:32N 32°08' W 081°08'0 0.0
2015-Jan-26 02:32N 32°08' W 081°08'0 0.0
2015-Jan-26 01:31N 32°08' W 081°08'0 0.0
2015-Jan-26 00:33N 32°08' W 081°08'0 0.0
2015-Jan-25 23:33N 32°08' W 081°08'0 0.0
2015-Jan-25 22:33N 32°08' W 081°08'0 0.0
2015-Jan-25 21:33N 32°08' W 081°08'0 0.0
2015-Jan-25 20:32N 32°08' W 081°08'0 0.0
2015-Jan-25 19:31N 32°08' W 081°08'0 0.0
2015-Jan-25 18:31N 32°08' W 081°08'0 0.0
2015-Jan-25 17:31N 32°08' W 081°08'0 0.0
2015-Jan-25 16:33N 32°08' W 081°08'1 1.4
2015-Jan-25 15:33N 32°06' W 081°07'6 6.1
2015-Jan-25 14:33N 32°06' W 081°00'1312.8
2015-Jan-25 13:34N 31°60' W 080°47'10 9.7
2015-Jan-25 12:32N 31°55' W 080°37'6 6.2
2015-Jan-25 11:33N 31°52' W 080°30'  

Dump ship's entire track history